createdAt,value
2018-12-12T15:48:50.663Z,6.20
2018-12-12T15:49:50.573Z,5.80
2018-12-12T15:50:50.566Z,9.50
2018-12-12T15:51:50.558Z,6.90
2018-12-12T15:52:50.546Z,7.00
2018-12-12T15:53:50.587Z,6.00
2018-12-12T15:54:50.523Z,8.40
2018-12-12T15:55:50.506Z,9.30
2018-12-12T15:56:50.497Z,18.40
2018-12-12T15:57:50.539Z,14.10
2018-12-12T15:58:50.488Z,16.10
2018-12-12T16:00:28.243Z,16.20
2018-12-12T16:01:28.228Z,16.00
2018-12-12T16:02:14.897Z,11.60
2018-12-12T16:03:14.889Z,15.40
2018-12-12T16:04:14.896Z,15.10
2018-12-12T16:05:14.849Z,16.80
2018-12-12T16:06:14.836Z,14.80
2018-12-12T16:07:14.835Z,14.60
2018-12-12T16:08:14.840Z,22.70
2018-12-12T16:09:14.866Z,18.30
2018-12-12T16:10:14.787Z,22.90
2018-12-12T16:11:14.798Z,15.60
2018-12-12T16:12:14.771Z,10.00
2018-12-12T16:13:14.793Z,9.80
2018-12-12T16:14:14.745Z,7.90
2018-12-12T16:15:14.738Z,6.20
2018-12-12T16:16:14.723Z,10.90
2018-12-12T16:17:14.711Z,11.40
2018-12-12T16:18:14.727Z,8.10
2018-12-12T16:19:14.701Z,7.70
2018-12-12T16:20:14.690Z,7.30
2018-12-12T16:21:14.675Z,9.50
2018-12-12T16:22:14.659Z,9.50
2018-12-12T16:23:14.668Z,28.80
2018-12-12T16:24:14.635Z,22.80
2018-12-12T16:25:14.628Z,11.10
2018-12-12T16:26:14.626Z,9.90
2018-12-12T16:27:14.611Z,10.60
2018-12-12T16:28:14.617Z,21.90
2018-12-12T16:29:14.587Z,11.90
2018-12-12T16:30:14.583Z,15.00
2018-12-12T16:31:14.601Z,13.70
2018-12-12T16:32:14.556Z,18.10
2018-12-12T16:33:14.569Z,10.40
2018-12-12T16:34:14.529Z,10.40
2018-12-12T16:35:14.518Z,8.90
2018-12-12T16:36:14.510Z,10.40
2018-12-12T16:37:14.497Z,7.30
2018-12-12T16:38:14.519Z,10.80
2018-12-12T16:39:14.503Z,17.60
2018-12-12T16:40:14.470Z,15.90
2018-12-12T16:41:14.459Z,12.10
2018-12-12T16:42:14.455Z,11.30
2018-12-12T16:43:14.469Z,13.70
2018-12-12T16:44:14.458Z,14.60
2018-12-12T16:45:14.415Z,14.40
2018-12-12T16:46:14.401Z,15.30
2018-12-12T16:47:14.387Z,12.40
2018-12-12T16:48:14.381Z,12.90
2018-12-12T16:49:14.389Z,14.60
2018-12-12T16:50:14.365Z,10.50
2018-12-12T16:51:14.376Z,11.00
2018-12-12T16:52:14.341Z,12.60
2018-12-12T16:53:14.356Z,12.60
2018-12-12T16:54:14.336Z,10.70
2018-12-12T16:55:14.309Z,12.00
2018-12-12T16:56:14.293Z,13.00
2018-12-12T16:57:14.294Z,19.40
2018-12-12T16:58:14.295Z,27.20
2018-12-12T16:59:14.262Z,14.70
2018-12-12T17:00:14.248Z,14.60
2018-12-12T17:01:14.286Z,19.90
2018-12-12T17:02:14.233Z,15.10
2018-12-12T17:03:14.246Z,34.10
2018-12-12T17:04:14.212Z,15.50
2018-12-12T17:05:14.198Z,15.70
2018-12-12T17:06:14.187Z,20.40
2018-12-12T17:07:14.172Z,9.10
2018-12-12T17:08:14.184Z,36.10
2018-12-12T17:09:14.167Z,39.60
2018-12-12T17:10:14.193Z,10.10
2018-12-12T17:11:14.138Z,13.70
2018-12-12T17:12:14.123Z,13.70
2018-12-12T17:13:14.133Z,11.00
2018-12-12T17:14:14.095Z,15.60
2018-12-12T17:15:14.085Z,31.20
2018-12-12T17:16:14.081Z,18.10
2018-12-12T17:17:14.068Z,47.10
2018-12-12T17:18:14.079Z,47.00
2018-12-12T17:19:14.044Z,45.60
2018-12-12T17:20:14.029Z,49.10
2018-12-12T17:21:14.019Z,42.80
2018-12-12T17:22:14.037Z,29.30
2018-12-12T17:23:14.027Z,28.60
2018-12-12T17:24:13.997Z,23.40
2018-12-12T17:25:13.981Z,21.70
2018-12-12T17:26:13.967Z,22.20
2018-12-12T17:27:13.957Z,20.00
2018-12-12T17:28:13.972Z,20.20
2018-12-12T17:29:13.934Z,17.80
2018-12-12T17:30:13.930Z,18.10
2018-12-12T17:31:13.920Z,13.20
2018-12-12T17:32:13.901Z,15.50
2018-12-12T17:33:13.912Z,12.40
2018-12-12T17:34:13.890Z,12.10
2018-12-12T17:35:13.874Z,11.70
2018-12-12T17:36:13.865Z,12.70
2018-12-12T17:37:13.852Z,11.60
2018-12-12T17:38:13.864Z,15.40
2018-12-12T17:39:13.832Z,20.00
2018-12-12T17:40:13.816Z,18.90
2018-12-12T17:41:13.805Z,22.40
2018-12-12T17:42:13.815Z,22.50
2018-12-12T17:43:13.826Z,23.80
2018-12-12T17:44:13.781Z,17.80
2018-12-12T17:45:13.785Z,20.50
2018-12-12T17:46:13.750Z,24.60
2018-12-12T17:47:13.740Z,22.30
2018-12-12T17:48:13.759Z,18.60
2018-12-12T17:49:13.768Z,14.60
2018-12-12T17:50:13.711Z,14.30
2018-12-12T17:51:13.696Z,11.20
2018-12-12T17:52:13.685Z,10.60
2018-12-12T17:53:13.718Z,9.60
2018-12-12T17:54:13.689Z,19.40
2018-12-12T17:55:13.662Z,19.40
2018-12-12T17:56:13.649Z,22.80
2018-12-12T17:57:13.638Z,24.00
2018-12-12T17:58:13.647Z,28.60
2018-12-12T17:59:13.617Z,30.90
2018-12-12T18:00:13.642Z,24.30
2018-12-12T18:01:13.590Z,18.30
2018-12-12T18:02:13.625Z,14.50
2018-12-12T18:03:13.596Z,14.10
2018-12-12T18:04:13.591Z,13.10
2018-12-12T18:05:15.385Z,10.10
2018-12-12T18:06:13.555Z,10.20
2018-12-12T18:07:13.584Z,8.90
2018-12-12T18:08:13.525Z,8.60
2018-12-12T18:09:13.539Z,7.60
2018-12-12T18:10:13.496Z,15.50
2018-12-12T18:11:13.508Z,21.80
2018-12-12T18:12:13.487Z,22.90
2018-12-12T18:13:13.559Z,22.10
2018-12-12T18:14:13.508Z,27.40
2018-12-12T18:15:13.448Z,20.30
2018-12-12T18:16:13.431Z,16.10
2018-12-12T18:17:13.423Z,15.10
2018-12-12T18:18:13.405Z,12.00
2018-12-12T18:19:13.424Z,10.80
2018-12-12T18:20:13.400Z,10.50
2018-12-12T18:21:13.388Z,15.90
2018-12-12T18:22:13.370Z,16.50
2018-12-12T18:23:13.362Z,19.20
2018-12-12T18:24:13.372Z,19.00
2018-12-12T18:25:13.351Z,16.20
2018-12-12T18:26:13.327Z,27.50
2018-12-12T18:27:13.330Z,27.40
2018-12-12T18:28:13.359Z,29.00
2018-12-12T18:29:13.322Z,28.60
2018-12-12T18:30:13.298Z,23.40
2018-12-12T18:31:13.297Z,23.80
2018-12-12T18:32:13.260Z,18.90
2018-12-12T18:33:13.251Z,20.50
2018-12-12T18:34:13.265Z,18.50
2018-12-12T18:35:13.234Z,18.00
2018-12-12T18:36:13.221Z,19.40
2018-12-12T18:37:13.208Z,17.30
2018-12-12T18:38:13.199Z,20.60
2018-12-12T18:39:13.213Z,15.70
2018-12-12T18:40:13.180Z,14.50
2018-12-12T18:41:13.187Z,26.40
2018-12-12T18:42:13.149Z,22.90
2018-12-12T18:43:13.137Z,14.20
2018-12-12T18:44:13.146Z,15.90
2018-12-12T18:45:13.114Z,28.80
2018-12-12T18:46:13.108Z,40.60
2018-12-12T18:47:13.101Z,42.70
2018-12-12T18:48:13.106Z,41.90
2018-12-12T18:49:13.123Z,44.80
2018-12-12T18:50:13.069Z,37.60
2018-12-12T18:51:13.057Z,30.10
2018-12-12T18:52:13.075Z,29.50
2018-12-12T18:53:13.039Z,33.10
2018-12-12T18:54:13.032Z,31.70
2018-12-12T18:55:13.040Z,37.70
2018-12-12T18:56:12.999Z,41.80
2018-12-12T18:57:13.016Z,41.50
2018-12-12T18:58:12.991Z,41.10
2018-12-12T18:59:13.000Z,50.90
2018-12-12T19:00:12.971Z,39.70
2018-12-12T19:01:12.969Z,32.70
2018-12-12T19:02:12.936Z,33.00
2018-12-12T19:03:12.938Z,38.90
2018-12-12T19:04:12.936Z,40.70
2018-12-12T19:05:12.905Z,35.80
2018-12-12T19:06:12.910Z,33.20
2018-12-12T19:07:12.895Z,30.20
2018-12-12T19:08:12.869Z,31.20
2018-12-12T19:09:12.894Z,24.40
2018-12-12T19:10:12.864Z,19.70
2018-12-12T19:11:12.853Z,22.30
2018-12-12T19:12:12.863Z,33.00
2018-12-12T19:13:13.288Z,34.00
2018-12-12T19:14:12.806Z,34.30
2018-12-12T19:15:12.828Z,38.10
2018-12-12T19:16:12.799Z,48.10
2018-12-12T19:17:12.784Z,48.60
2018-12-12T19:18:12.772Z,52.50
2018-12-12T19:19:12.762Z,49.20
2018-12-12T19:20:12.771Z,50.50
2018-12-12T19:21:12.746Z,46.60
2018-12-12T19:22:12.748Z,36.00
2018-12-12T19:23:12.746Z,52.10
2018-12-12T19:24:12.744Z,31.20
2018-12-12T19:25:12.735Z,27.70
2018-12-12T19:26:12.678Z,29.10
2018-12-12T19:27:12.683Z,31.60
2018-12-12T19:28:12.659Z,28.80
2018-12-12T19:29:12.653Z,24.20
2018-12-12T19:30:13.167Z,30.20
2018-12-12T19:31:12.629Z,34.80
2018-12-12T19:32:12.615Z,36.90
2018-12-12T19:33:12.614Z,45.70
2018-12-12T19:34:12.589Z,25.00
2018-12-12T19:35:12.611Z,42.80
2018-12-12T19:36:12.579Z,38.20
2018-12-12T19:37:12.562Z,36.60
2018-12-12T19:38:12.554Z,34.20
2018-12-12T19:39:12.543Z,34.40
2018-12-12T19:40:12.530Z,34.10
2018-12-12T19:41:12.538Z,24.30
2018-12-12T19:42:12.507Z,31.40
2018-12-12T19:43:12.508Z,28.10
2018-12-12T19:44:12.491Z,26.10
2018-12-12T19:45:12.479Z,24.80
2018-12-12T19:46:12.478Z,24.00
2018-12-12T19:47:12.453Z,29.20
2018-12-12T19:48:12.439Z,19.30
2018-12-12T19:49:12.431Z,20.60
2018-12-12T19:50:12.458Z,21.80
2018-12-12T19:51:12.415Z,22.20
2018-12-12T19:52:12.453Z,29.80
2018-12-12T19:53:12.466Z,43.00
2018-12-12T19:54:12.371Z,39.80
2018-12-12T19:55:12.387Z,49.80
2018-12-12T19:56:12.390Z,48.10
2018-12-12T19:57:12.364Z,52.10
2018-12-12T19:58:12.353Z,49.50
2018-12-12T19:59:12.348Z,44.00
2018-12-12T20:00:12.329Z,40.70
2018-12-12T20:01:12.310Z,32.40
2018-12-12T20:02:12.299Z,29.50
2018-12-12T20:03:12.327Z,23.90
2018-12-12T20:04:12.274Z,27.70
2018-12-12T20:05:12.303Z,42.80
2018-12-12T20:06:12.269Z,50.10
2018-12-12T20:07:12.237Z,43.50
2018-12-12T20:08:12.241Z,38.30
2018-12-12T20:09:13.091Z,53.30
2018-12-12T20:10:12.212Z,52.70
2018-12-12T20:11:12.220Z,37.20
2018-12-12T20:12:12.178Z,40.70
2018-12-12T20:13:12.184Z,30.80
2018-12-12T20:14:12.218Z,27.10
2018-12-12T20:15:12.157Z,22.20
2018-12-12T20:16:12.166Z,20.00
2018-12-12T20:17:12.137Z,26.20
2018-12-12T20:18:12.148Z,19.80
2018-12-12T20:19:12.104Z,24.40
2018-12-12T20:20:12.340Z,19.60
2018-12-12T20:21:12.107Z,16.30
2018-12-12T20:22:12.084Z,16.80
2018-12-12T20:23:12.063Z,15.20
2018-12-12T20:24:12.060Z,15.60
2018-12-12T20:25:12.046Z,16.60
2018-12-12T20:26:12.074Z,23.90
2018-12-12T20:27:12.017Z,22.90
2018-12-12T20:28:12.013Z,30.60
2018-12-12T20:29:12.011Z,36.60
2018-12-12T20:30:11.987Z,28.00
2018-12-12T20:31:11.999Z,39.00
2018-12-12T20:32:11.985Z,36.20
2018-12-12T20:33:11.953Z,31.80
2018-12-12T20:34:11.949Z,31.10
2018-12-12T20:35:11.936Z,25.70
2018-12-12T20:36:11.959Z,21.30
2018-12-12T20:37:11.922Z,21.50
2018-12-12T20:38:11.898Z,25.80
2018-12-12T20:39:11.888Z,25.30
2018-12-12T20:40:11.886Z,32.60
2018-12-12T20:41:11.877Z,36.50
2018-12-12T20:42:11.882Z,40.50
2018-12-12T20:43:11.869Z,41.80
2018-12-12T20:44:11.835Z,66.60
2018-12-12T20:45:11.824Z,56.90
2018-12-12T20:46:11.822Z,63.00
2018-12-12T20:47:12.161Z,56.80
2018-12-12T20:48:11.809Z,64.90
2018-12-12T20:49:11.795Z,49.80
2018-12-12T20:50:11.774Z,39.40
2018-12-12T20:51:11.762Z,35.70
2018-12-12T20:52:11.782Z,29.50
2018-12-12T20:53:11.747Z,26.50
2018-12-12T20:54:11.734Z,25.80
2018-12-12T20:55:11.729Z,27.30
2018-12-12T20:56:11.717Z,49.60
2018-12-12T20:57:11.729Z,38.60
2018-12-12T20:58:11.686Z,36.10
2018-12-12T20:59:11.676Z,45.80
2018-12-12T21:00:11.666Z,36.90
2018-12-12T21:01:11.664Z,59.80
2018-12-12T21:02:11.668Z,37.00
2018-12-12T21:03:11.688Z,45.00
2018-12-12T21:04:11.627Z,52.30
2018-12-12T21:05:11.639Z,41.30
2018-12-12T21:06:11.612Z,28.20
2018-12-12T21:07:11.629Z,28.40
2018-12-12T21:08:11.591Z,21.50
2018-12-12T21:09:11.573Z,25.70
2018-12-12T21:10:11.564Z,22.00
2018-12-12T21:11:11.547Z,24.40
2018-12-12T21:12:11.573Z,33.50
2018-12-12T21:13:11.555Z,34.60
2018-12-12T21:14:11.520Z,36.70
2018-12-12T21:15:11.528Z,37.70
2018-12-12T21:16:11.494Z,38.10
2018-12-12T21:17:11.557Z,46.50
2018-12-12T21:18:11.477Z,40.40
2018-12-12T21:19:11.476Z,32.50
2018-12-12T21:20:11.476Z,27.20
2018-12-12T21:21:11.464Z,33.90
2018-12-12T21:22:11.581Z,29.00
2018-12-12T21:23:11.431Z,27.20
2018-12-12T21:24:11.433Z,32.30
2018-12-12T21:25:11.462Z,31.60
2018-12-12T21:26:11.396Z,32.40
2018-12-12T21:27:11.402Z,33.30
2018-12-12T21:28:11.380Z,30.90
2018-12-12T21:29:11.367Z,29.10
2018-12-12T21:30:17.042Z,35.90
2018-12-12T21:31:12.331Z,42.50
2018-12-12T21:32:11.350Z,47.30
2018-12-12T21:33:11.314Z,57.40
2018-12-12T21:34:11.309Z,42.90
2018-12-12T21:35:11.329Z,40.10
2018-12-12T21:36:11.289Z,36.20
2018-12-12T21:37:11.266Z,39.70
2018-12-12T21:38:11.278Z,39.50
2018-12-12T21:39:11.256Z,35.80
2018-12-12T21:40:11.261Z,37.00
2018-12-12T21:41:11.259Z,51.30
2018-12-12T21:42:11.284Z,39.60
2018-12-12T21:43:11.201Z,33.70
2018-12-12T21:44:11.195Z,45.60
2018-12-12T21:45:11.188Z,57.40
2018-12-12T21:46:11.179Z,46.50
2018-12-12T21:47:11.211Z,33.30
2018-12-12T21:48:11.146Z,34.30
2018-12-12T21:49:11.139Z,30.70
2018-12-12T21:50:11.132Z,28.20
2018-12-12T21:51:11.162Z,28.60
2018-12-12T21:52:11.779Z,31.80
2018-12-12T21:53:11.120Z,33.10
2018-12-12T21:54:11.118Z,36.50
2018-12-12T21:55:11.075Z,42.20
2018-12-12T21:56:11.086Z,56.00
2018-12-12T21:57:11.104Z,69.20
2018-12-12T21:58:11.076Z,114.00
2018-12-12T21:59:11.029Z,90.00
2018-12-12T22:00:11.033Z,46.50
2018-12-12T22:01:11.009Z,47.90
2018-12-12T22:02:11.010Z,74.90
2018-12-12T22:03:10.996Z,65.60
2018-12-12T22:04:11.012Z,57.00
2018-12-12T22:05:10.962Z,64.80
2018-12-12T22:06:10.958Z,64.60
2018-12-12T22:07:10.957Z,55.20
2018-12-12T22:08:10.938Z,56.70
2018-12-12T22:09:10.945Z,49.90
2018-12-12T22:10:10.908Z,55.20
2018-12-12T22:11:10.898Z,54.90
2018-12-12T22:12:10.887Z,41.90
2018-12-12T22:13:10.880Z,24.60
2018-12-12T22:14:10.903Z,28.10
2018-12-12T22:15:11.010Z,38.00
2018-12-12T22:16:11.264Z,41.00
2018-12-12T22:17:10.838Z,42.80
2018-12-12T22:18:10.826Z,37.70
2018-12-12T22:19:10.841Z,47.40
2018-12-12T22:20:10.809Z,43.60
2018-12-12T22:21:10.813Z,38.30
2018-12-12T22:22:10.778Z,27.70
2018-12-12T22:23:10.768Z,37.40
2018-12-12T22:24:10.763Z,36.20
2018-12-12T22:25:10.772Z,34.00
2018-12-12T22:26:10.769Z,32.10
2018-12-12T22:27:10.739Z,33.30
2018-12-12T22:28:10.716Z,32.50
2018-12-12T22:29:10.711Z,30.70
2018-12-12T22:30:10.764Z,35.30
2018-12-12T22:31:10.706Z,33.30
2018-12-12T22:32:10.692Z,35.60
2018-12-12T22:33:10.659Z,27.90
2018-12-12T22:34:10.735Z,28.80
2018-12-12T22:35:10.759Z,26.50
2018-12-12T22:36:14.151Z,23.10
2018-12-12T22:37:10.684Z,22.30
2018-12-12T22:38:10.629Z,22.00
2018-12-12T22:39:10.659Z,26.40
2018-12-12T22:40:10.613Z,39.30
2018-12-12T22:41:10.858Z,49.60
2018-12-12T22:42:10.656Z,55.70
2018-12-12T22:43:10.629Z,53.90
2018-12-12T22:44:10.571Z,51.80
2018-12-12T22:45:10.565Z,38.90
2018-12-12T22:46:10.550Z,39.00
2018-12-12T22:47:10.517Z,33.60
2018-12-12T22:48:10.538Z,28.00
2018-12-12T22:49:10.491Z,22.80
2018-12-12T22:50:10.492Z,19.00
2018-12-12T22:51:10.470Z,15.80
2018-12-12T22:52:10.459Z,16.00
2018-12-12T22:53:10.469Z,13.70
2018-12-12T22:54:10.467Z,13.50
2018-12-12T22:55:10.428Z,14.30
2018-12-12T22:56:10.410Z,12.40
2018-12-12T22:57:10.406Z,13.60
2018-12-12T22:58:10.400Z,12.00
2018-12-12T22:59:10.489Z,13.00
2018-12-12T23:00:10.370Z,10.70
2018-12-12T23:01:10.358Z,17.60
2018-12-12T23:02:10.342Z,20.50
2018-12-12T23:03:10.327Z,28.00
2018-12-12T23:04:10.930Z,30.90
2018-12-12T23:05:10.311Z,36.40
2018-12-12T23:06:10.341Z,29.40
2018-12-12T23:07:10.309Z,30.10
2018-12-12T23:08:10.285Z,32.40
2018-12-12T23:09:10.293Z,32.10
2018-12-12T23:10:10.545Z,22.20
2018-12-12T23:11:10.258Z,22.20
2018-12-12T23:12:10.236Z,17.40
2018-12-12T23:13:10.226Z,17.10
2018-12-12T23:14:10.217Z,17.50
2018-12-12T23:15:10.218Z,15.10
2018-12-12T23:16:10.188Z,13.70
2018-12-12T23:17:10.196Z,26.70
2018-12-12T23:18:10.180Z,20.60
2018-12-12T23:19:10.194Z,21.80
2018-12-12T23:20:10.175Z,30.40
2018-12-12T23:21:10.138Z,38.20
2018-12-12T23:22:10.125Z,37.20
2018-12-12T23:23:10.113Z,37.10
2018-12-12T23:24:10.111Z,25.80
2018-12-12T23:25:10.158Z,22.40
2018-12-12T23:26:10.080Z,18.30
2018-12-12T23:27:10.070Z,21.30
2018-12-12T23:28:10.280Z,20.70
2018-12-12T23:29:10.052Z,14.50
2018-12-12T23:30:10.043Z,20.70
2018-12-12T23:31:10.064Z,19.40
2018-12-12T23:32:10.026Z,21.20
2018-12-12T23:33:10.011Z,18.40
2018-12-12T23:34:09.991Z,25.70
2018-12-12T23:35:09.983Z,26.90
2018-12-12T23:36:10.631Z,23.80
2018-12-12T23:37:09.960Z,28.20
2018-12-12T23:38:09.965Z,29.50
2018-12-12T23:39:09.947Z,26.90
2018-12-12T23:40:09.926Z,24.80
2018-12-12T23:41:09.940Z,21.30
2018-12-12T23:42:09.938Z,19.50
2018-12-12T23:43:09.900Z,19.00
2018-12-12T23:44:09.895Z,17.20
2018-12-12T23:45:09.884Z,15.80
2018-12-12T23:46:09.883Z,16.90
2018-12-12T23:47:09.868Z,16.70
2018-12-12T23:48:09.865Z,22.30
2018-12-12T23:49:09.832Z,21.50
2018-12-12T23:50:09.833Z,23.90
2018-12-12T23:51:09.818Z,21.80
2018-12-12T23:52:09.810Z,22.90
2018-12-12T23:53:09.822Z,22.10
2018-12-12T23:54:09.778Z,19.20
2018-12-12T23:55:09.766Z,17.00
2018-12-12T23:56:09.765Z,14.00
2018-12-12T23:57:09.766Z,14.40
2018-12-12T23:58:09.795Z,15.50
2018-12-12T23:59:09.724Z,13.80
